sensor_id;sensor_type;location;lat;lon;timestamp;temperature;humidity
16263;DHT22;8239;48.594;8.598;2022-10-31T00:00:09;7.50;99.90
16263;DHT22;8239;48.594;8.598;2022-10-31T00:02:37;7.50;99.90
16263;DHT22;8239;48.594;8.598;2022-10-31T00:05:04;7.40;99.90
16263;DHT22;8239;48.594;8.598;2022-10-31T00:07:31;7.40;99.90
16263;DHT22;8239;48.594;8.598;2022-10-31T00:09:59;7.40;99.90
16263;DHT22;8239;48.594;8.598;2022-10-31T00:12:26;7.40;99.90
16263;DHT22;8239;48.594;8.598;2022-10-31T00:14:53;7.40;99.90
16263;DHT22;8239;48.594;8.598;2022-10-31T00:17:20;7.30;99.90
16263;DHT22;8239;48.594;8.598;2022-10-31T00:19:47;7.30;99.90
16263;DHT22;8239;48.594;8.598;2022-10-31T00:22:14;7.30;99.90
16263;DHT22;8239;48.594;8.598;2022-10-31T00:24:41;7.30;99.90
16263;DHT22;8239;48.594;8.598;2022-10-31T00:27:09;7.20;99.90
16263;DHT22;8239;48.594;8.598;2022-10-31T00:29:36;7.20;99.90
16263;DHT22;8239;48.594;8.598;2022-10-31T00:32:03;7.20;99.90
16263;DHT22;8239;48.594;8.598;2022-10-31T00:34:30;7.20;99.90
16263;DHT22;8239;48.594;8.598;2022-10-31T00:36:57;7.20;99.90
16263;DHT22;8239;48.594;8.598;2022-10-31T00:39:24;7.20;99.90
16263;DHT22;8239;48.594;8.598;2022-10-31T00:41:51;7.10;99.90
16263;DHT22;8239;48.594;8.598;2022-10-31T00:44:19;7.10;99.90
16263;DHT22;8239;48.594;8.598;2022-10-31T00:46:46;7.10;99.90
16263;DHT22;8239;48.594;8.598;2022-10-31T00:49:13;7.00;99.90
16263;DHT22;8239;48.594;8.598;2022-10-31T00:51:40;7.00;99.90
16263;DHT22;8239;48.594;8.598;2022-10-31T00:54:08;7.00;99.90
16263;DHT22;8239;48.594;8.598;2022-10-31T00:56:34;6.90;99.90
16263;DHT22;8239;48.594;8.598;2022-10-31T00:59:01;6.90;99.90
16263;DHT22;8239;48.594;8.598;2022-10-31T01:01:30;6.90;99.90
16263;DHT22;8239;48.594;8.598;2022-10-31T01:03:57;6.90;99.90
16263;DHT22;8239;48.594;8.598;2022-10-31T01:06:24;6.90;99.90
16263;DHT22;8239;48.594;8.598;2022-10-31T01:08:50;6.90;99.90
16263;DHT22;8239;48.594;8.598;2022-10-31T01:11:19;6.90;99.90
16263;DHT22;8239;48.594;8.598;2022-10-31T01:13:49;6.90;99.90
16263;DHT22;8239;48.594;8.598;2022-10-31T01:16:18;6.90;99.90
16263;DHT22;8239;48.594;8.598;2022-10-31T01:18:47;6.90;99.90
16263;DHT22;8239;48.594;8.598;2022-10-31T01:21:15;6.90;99.90
16263;DHT22;8239;48.594;8.598;2022-10-31T01:23:43;6.90;99.90
16263;DHT22;8239;48.594;8.598;2022-10-31T01:26:12;6.90;99.90
16263;DHT22;8239;48.594;8.598;2022-10-31T01:28:49;6.90;99.90
16263;DHT22;8239;48.594;8.598;2022-10-31T01:31:17;6.90;99.90
16263;DHT22;8239;48.594;8.598;2022-10-31T01:33:45;6.90;99.90
16263;DHT22;8239;48.594;8.598;2022-10-31T01:36:16;6.80;99.90
16263;DHT22;8239;48.594;8.598;2022-10-31T01:38:44;6.80;99.90
16263;DHT22;8239;48.594;8.598;2022-10-31T01:41:14;6.80;99.90
16263;DHT22;8239;48.594;8.598;2022-10-31T01:43:46;6.70;99.90
16263;DHT22;8239;48.594;8.598;2022-10-31T01:46:15;6.70;99.90
16263;DHT22;8239;48.594;8.598;2022-10-31T01:48:44;6.70;99.90
16263;DHT22;8239;48.594;8.598;2022-10-31T01:51:15;6.60;99.90
16263;DHT22;8239;48.594;8.598;2022-10-31T01:53:44;6.70;99.90
16263;DHT22;8239;48.594;8.598;2022-10-31T01:56:13;6.70;99.90
16263;DHT22;8239;48.594;8.598;2022-10-31T01:58:42;6.60;99.90
16263;DHT22;8239;48.594;8.598;2022-10-31T02:01:12;6.60;99.90
16263;DHT22;8239;48.594;8.598;2022-10-31T02:03:40;6.60;99.90
16263;DHT22;8239;48.594;8.598;2022-10-31T02:06:10;6.70;99.90
16263;DHT22;8239;48.594;8.598;2022-10-31T02:08:41;6.60;99.90
16263;DHT22;8239;48.594;8.598;2022-10-31T02:11:09;6.60;99.90
16263;DHT22;8239;48.594;8.598;2022-10-31T02:13:37;6.60;99.90
16263;DHT22;8239;48.594;8.598;2022-10-31T02:16:04;6.60;99.90
16263;DHT22;8239;48.594;8.598;2022-10-31T02:18:31;6.60;99.90
16263;DHT22;8239;48.594;8.598;2022-10-31T02:21:04;6.60;99.90
16263;DHT22;8239;48.594;8.598;2022-10-31T02:26:53;6.60;99.90
16263;DHT22;8239;48.594;8.598;2022-10-31T02:29:50;6.50;99.90
16263;DHT22;8239;48.594;8.598;2022-10-31T02:32:25;6.50;99.90
16263;DHT22;8239;48.594;8.598;2022-10-31T02:34:58;6.50;99.90
16263;DHT22;8239;48.594;8.598;2022-10-31T02:37:34;6.50;99.90
16263;DHT22;8239;48.594;8.598;2022-10-31T02:40:09;6.40;99.90
16263;DHT22;8239;48.594;8.598;2022-10-31T02:42:42;6.40;99.90
16263;DHT22;8239;48.594;8.598;2022-10-31T02:45:14;6.40;99.90
16263;DHT22;8239;48.594;8.598;2022-10-31T02:47:50;6.40;99.90
16263;DHT22;8239;48.594;8.598;2022-10-31T02:50:22;6.30;99.90
16263;DHT22;8239;48.594;8.598;2022-10-31T02:52:51;6.30;99.90
16263;DHT22;8239;48.594;8.598;2022-10-31T02:55:51;6.30;99.90
16263;DHT22;8239;48.594;8.598;2022-10-31T02:58:22;6.30;99.90
16263;DHT22;8239;48.594;8.598;2022-10-31T03:03:50;6.20;99.90
16263;DHT22;8239;48.594;8.598;2022-10-31T03:06:25;6.20;99.90
16263;DHT22;8239;48.594;8.598;2022-10-31T03:09:03;6.20;99.90
16263;DHT22;8239;48.594;8.598;2022-10-31T03:11:41;6.20;99.90
16263;DHT22;8239;48.594;8.598;2022-10-31T03:14:15;6.20;99.90
16263;DHT22;8239;48.594;8.598;2022-10-31T03:16:46;6.20;99.90
16263;DHT22;8239;48.594;8.598;2022-10-31T03:19:17;6.20;99.90
16263;DHT22;8239;48.594;8.598;2022-10-31T03:21:48;6.20;99.90
16263;DHT22;8239;48.594;8.598;2022-10-31T03:24:17;6.20;99.90
16263;DHT22;8239;48.594;8.598;2022-10-31T03:26:48;6.20;99.90
16263;DHT22;8239;48.594;8.598;2022-10-31T03:29:19;6.20;99.90
16263;DHT22;8239;48.594;8.598;2022-10-31T03:31:51;6.20;99.90
16263;DHT22;8239;48.594;8.598;2022-10-31T03:34:21;6.20;99.90
16263;DHT22;8239;48.594;8.598;2022-10-31T03:36:50;6.20;99.90
16263;DHT22;8239;48.594;8.598;2022-10-31T03:39:19;6.20;99.90
16263;DHT22;8239;48.594;8.598;2022-10-31T03:41:52;6.20;99.90
16263;DHT22;8239;48.594;8.598;2022-10-31T03:44:21;6.30;99.90
16263;DHT22;8239;48.594;8.598;2022-10-31T03:46:50;6.30;99.90
16263;DHT22;8239;48.594;8.598;2022-10-31T03:49:17;6.30;99.90
16263;DHT22;8239;48.594;8.598;2022-10-31T03:51:49;6.30;99.90
16263;DHT22;8239;48.594;8.598;2022-10-31T03:54:24;6.30;99.90
16263;DHT22;8239;48.594;8.598;2022-10-31T03:56:55;6.30;99.90
16263;DHT22;8239;48.594;8.598;2022-10-31T03:59:27;6.30;99.90
16263;DHT22;8239;48.594;8.598;2022-10-31T04:01:59;6.30;99.90
16263;DHT22;8239;48.594;8.598;2022-10-31T04:04:29;6.30;99.90
16263;DHT22;8239;48.594;8.598;2022-10-31T04:06:59;6.30;99.90
16263;DHT22;8239;48.594;8.598;2022-10-31T04:09:29;6.30;99.90
16263;DHT22;8239;48.594;8.598;2022-10-31T04:11:58;6.30;99.90
16263;DHT22;8239;48.594;8.598;2022-10-31T04:14:27;6.30;99.90
16263;DHT22;8239;48.594;8.598;2022-10-31T04:16:56;6.30;99.90
16263;DHT22;8239;48.594;8.598;2022-10-31T04:19:23;6.30;99.90
16263;DHT22;8239;48.594;8.598;2022-10-31T04:21:50;6.30;99.90
16263;DHT22;8239;48.594;8.598;2022-10-31T04:24:19;6.30;99.90
16263;DHT22;8239;48.594;8.598;2022-10-31T04:26:46;6.20;99.90
16263;DHT22;8239;48.594;8.598;2022-10-31T04:29:12;6.20;99.90
16263;DHT22;8239;48.594;8.598;2022-10-31T04:31:39;6.20;99.90
16263;DHT22;8239;48.594;8.598;2022-10-31T04:34:06;6.20;99.90
16263;DHT22;8239;48.594;8.598;2022-10-31T04:36:33;6.20;99.90
16263;DHT22;8239;48.594;8.598;2022-10-31T04:39:00;6.20;99.90
16263;DHT22;8239;48.594;8.598;2022-10-31T04:41:29;6.20;99.90
16263;DHT22;8239;48.594;8.598;2022-10-31T04:43:56;6.10;99.90
16263;DHT22;8239;48.594;8.598;2022-10-31T04:46:23;6.10;99.90
16263;DHT22;8239;48.594;8.598;2022-10-31T04:48:50;6.10;99.90
16263;DHT22;8239;48.594;8.598;2022-10-31T04:51:16;6.10;99.90
16263;DHT22;8239;48.594;8.598;2022-10-31T04:53:43;6.10;99.90
16263;DHT22;8239;48.594;8.598;2022-10-31T04:56:10;6.00;99.90
16263;DHT22;8239;48.594;8.598;2022-10-31T04:58:39;6.00;99.90
16263;DHT22;8239;48.594;8.598;2022-10-31T05:01:05;6.00;99.90
16263;DHT22;8239;48.594;8.598;2022-10-31T05:03:32;6.00;99.90
16263;DHT22;8239;48.594;8.598;2022-10-31T05:05:59;5.90;99.90
16263;DHT22;8239;48.594;8.598;2022-10-31T05:08:26;5.90;99.90
16263;DHT22;8239;48.594;8.598;2022-10-31T05:10:53;5.90;99.90
16263;DHT22;8239;48.594;8.598;2022-10-31T05:13:20;5.90;99.90
16263;DHT22;8239;48.594;8.598;2022-10-31T05:15:49;5.90;99.90
16263;DHT22;8239;48.594;8.598;2022-10-31T05:18:16;5.80;99.90
16263;DHT22;8239;48.594;8.598;2022-10-31T05:20:43;5.80;99.90
16263;DHT22;8239;48.594;8.598;2022-10-31T05:23:10;5.80;99.90
16263;DHT22;8239;48.594;8.598;2022-10-31T05:25:37;5.80;99.90
16263;DHT22;8239;48.594;8.598;2022-10-31T05:28:04;5.80;99.90
16263;DHT22;8239;48.594;8.598;2022-10-31T05:30:31;5.80;99.90
16263;DHT22;8239;48.594;8.598;2022-10-31T05:33:00;5.80;99.90
16263;DHT22;8239;48.594;8.598;2022-10-31T05:35:29;5.80;99.90
16263;DHT22;8239;48.594;8.598;2022-10-31T05:37:57;5.80;99.90
16263;DHT22;8239;48.594;8.598;2022-10-31T05:40:25;5.80;99.90
16263;DHT22;8239;48.594;8.598;2022-10-31T05:42:53;5.80;99.90
16263;DHT22;8239;48.594;8.598;2022-10-31T05:45:21;5.70;99.90
16263;DHT22;8239;48.594;8.598;2022-10-31T05:47:52;5.70;99.90
16263;DHT22;8239;48.594;8.598;2022-10-31T05:50:20;5.70;99.90
16263;DHT22;8239;48.594;8.598;2022-10-31T05:52:53;5.70;99.90
16263;DHT22;8239;48.594;8.598;2022-10-31T05:55:21;5.70;99.90
16263;DHT22;8239;48.594;8.598;2022-10-31T05:57:48;5.70;99.90
16263;DHT22;8239;48.594;8.598;2022-10-31T06:00:15;5.70;99.90
16263;DHT22;8239;48.594;8.598;2022-10-31T06:02:42;5.70;99.90
16263;DHT22;8239;48.594;8.598;2022-10-31T06:05:09;5.70;99.90
16263;DHT22;8239;48.594;8.598;2022-10-31T06:07:37;5.80;99.90
16263;DHT22;8239;48.594;8.598;2022-10-31T06:10:06;5.80;99.90
16263;DHT22;8239;48.594;8.598;2022-10-31T06:12:34;5.90;99.90
16263;DHT22;8239;48.594;8.598;2022-10-31T06:15:04;5.90;99.90
16263;DHT22;8239;48.594;8.598;2022-10-31T06:17:32;5.90;99.90
16263;DHT22;8239;48.594;8.598;2022-10-31T06:19:59;6.00;99.90
16263;DHT22;8239;48.594;8.598;2022-10-31T06:22:25;6.10;99.90
16263;DHT22;8239;48.594;8.598;2022-10-31T06:24:54;6.20;99.90
16263;DHT22;8239;48.594;8.598;2022-10-31T06:27:21;6.30;99.90
16263;DHT22;8239;48.594;8.598;2022-10-31T06:29:48;6.60;99.90
16263;DHT22;8239;48.594;8.598;2022-10-31T06:32:15;7.00;99.90
16263;DHT22;8239;48.594;8.598;2022-10-31T06:34:43;7.50;99.90
16263;DHT22;8239;48.594;8.598;2022-10-31T06:37:11;8.10;99.90
16263;DHT22;8239;48.594;8.598;2022-10-31T06:39:41;8.60;99.90
16263;DHT22;8239;48.594;8.598;2022-10-31T06:42:10;9.00;99.90
16263;DHT22;8239;48.594;8.598;2022-10-31T06:44:37;9.10;99.90
16263;DHT22;8239;48.594;8.598;2022-10-31T06:47:05;9.20;99.90
16263;DHT22;8239;48.594;8.598;2022-10-31T06:49:33;9.20;99.90
16263;DHT22;8239;48.594;8.598;2022-10-31T06:52:00;9.20;99.90
16263;DHT22;8239;48.594;8.598;2022-10-31T06:54:27;9.40;99.90
16263;DHT22;8239;48.594;8.598;2022-10-31T06:56:53;9.50;99.90
16263;DHT22;8239;48.594;8.598;2022-10-31T06:59:22;9.70;99.90
16263;DHT22;8239;48.594;8.598;2022-10-31T07:01:49;10.10;99.90
16263;DHT22;8239;48.594;8.598;2022-10-31T07:04:16;10.50;99.90
16263;DHT22;8239;48.594;8.598;2022-10-31T07:06:43;10.90;99.90
16263;DHT22;8239;48.594;8.598;2022-10-31T07:09:11;11.20;99.90
16263;DHT22;8239;48.594;8.598;2022-10-31T07:11:38;11.50;99.90
16263;DHT22;8239;48.594;8.598;2022-10-31T07:14:05;11.80;99.90
16263;DHT22;8239;48.594;8.598;2022-10-31T07:16:33;12.20;99.90
16263;DHT22;8239;48.594;8.598;2022-10-31T07:19:00;12.40;99.90
16263;DHT22;8239;48.594;8.598;2022-10-31T07:21:27;12.70;99.90
16263;DHT22;8239;48.594;8.598;2022-10-31T07:23:54;12.90;99.90
16263;DHT22;8239;48.594;8.598;2022-10-31T07:26:21;13.10;99.90
16263;DHT22;8239;48.594;8.598;2022-10-31T07:28:48;13.40;99.90
16263;DHT22;8239;48.594;8.598;2022-10-31T07:31:15;13.60;99.90
16263;DHT22;8239;48.594;8.598;2022-10-31T07:33:44;13.80;99.90
16263;DHT22;8239;48.594;8.598;2022-10-31T07:36:11;14.10;99.90
16263;DHT22;8239;48.594;8.598;2022-10-31T07:38:38;14.40;99.90
16263;DHT22;8239;48.594;8.598;2022-10-31T07:41:05;14.70;99.90
16263;DHT22;8239;48.594;8.598;2022-10-31T07:43:35;15.00;99.90
16263;DHT22;8239;48.594;8.598;2022-10-31T07:46:05;15.40;99.90
16263;DHT22;8239;48.594;8.598;2022-10-31T07:48:32;15.70;99.90
16263;DHT22;8239;48.594;8.598;2022-10-31T07:51:00;16.00;99.90
16263;DHT22;8239;48.594;8.598;2022-10-31T07:53:27;16.30;99.80
16263;DHT22;8239;48.594;8.598;2022-10-31T07:55:57;16.40;99.60
16263;DHT22;8239;48.594;8.598;2022-10-31T07:58:24;16.60;98.40
16263;DHT22;8239;48.594;8.598;2022-10-31T08:00:51;16.80;98.40
16263;DHT22;8239;48.594;8.598;2022-10-31T08:03:18;17.00;97.70
16263;DHT22;8239;48.594;8.598;2022-10-31T08:05:46;17.20;96.70
16263;DHT22;8239;48.594;8.598;2022-10-31T08:08:14;17.40;95.70
16263;DHT22;8239;48.594;8.598;2022-10-31T08:10:42;17.60;95.40
16263;DHT22;8239;48.594;8.598;2022-10-31T08:13:11;17.80;94.90
16263;DHT22;8239;48.594;8.598;2022-10-31T08:15:38;17.90;94.90
16263;DHT22;8239;48.594;8.598;2022-10-31T08:18:11;18.20;94.70
16263;DHT22;8239;48.594;8.598;2022-10-31T08:20:39;18.70;94.10
16263;DHT22;8239;48.594;8.598;2022-10-31T08:23:06;19.20;93.20
16263;DHT22;8239;48.594;8.598;2022-10-31T08:25:35;19.60;92.20
16263;DHT22;8239;48.594;8.598;2022-10-31T08:28:03;20.10;91.00
16263;DHT22;8239;48.594;8.598;2022-10-31T08:30:31;20.60;90.20
16263;DHT22;8239;48.594;8.598;2022-10-31T08:33:00;21.20;85.70
16263;DHT22;8239;48.594;8.598;2022-10-31T08:35:27;21.60;82.10
16263;DHT22;8239;48.594;8.598;2022-10-31T08:37:55;21.70;79.60
16263;DHT22;8239;48.594;8.598;2022-10-31T08:40:22;21.60;77.70
16263;DHT22;8239;48.594;8.598;2022-10-31T08:43:00;21.60;77.40
16263;DHT22;8239;48.594;8.598;2022-10-31T08:45:28;21.70;76.40
16263;DHT22;8239;48.594;8.598;2022-10-31T08:47:58;22.20;76.00
16263;DHT22;8239;48.594;8.598;2022-10-31T08:50:26;22.80;74.40
16263;DHT22;8239;48.594;8.598;2022-10-31T08:52:53;23.40;73.10
16263;DHT22;8239;48.594;8.598;2022-10-31T08:55:20;24.20;70.50
16263;DHT22;8239;48.594;8.598;2022-10-31T08:57:47;25.00;68.00
16263;DHT22;8239;48.594;8.598;2022-10-31T09:00:16;25.60;64.30
16263;DHT22;8239;48.594;8.598;2022-10-31T09:02:43;26.20;60.20
16263;DHT22;8239;48.594;8.598;2022-10-31T09:05:10;26.30;59.00
16263;DHT22;8239;48.594;8.598;2022-10-31T09:07:37;26.40;57.90
16263;DHT22;8239;48.594;8.598;2022-10-31T09:10:05;26.50;57.60
16263;DHT22;8239;48.594;8.598;2022-10-31T09:12:32;26.50;57.00
16263;DHT22;8239;48.594;8.598;2022-10-31T09:14:58;26.40;56.60
16263;DHT22;8239;48.594;8.598;2022-10-31T09:17:27;26.20;56.50
16263;DHT22;8239;48.594;8.598;2022-10-31T09:19:54;25.90;56.80
16263;DHT22;8239;48.594;8.598;2022-10-31T09:22:22;25.80;57.10
16263;DHT22;8239;48.594;8.598;2022-10-31T09:24:49;25.80;57.60
16263;DHT22;8239;48.594;8.598;2022-10-31T09:27:16;25.90;56.90
16263;DHT22;8239;48.594;8.598;2022-10-31T09:29:43;25.90;56.80
16263;DHT22;8239;48.594;8.598;2022-10-31T09:32:10;25.90;57.10
16263;DHT22;8239;48.594;8.598;2022-10-31T09:34:38;25.90;57.10
16263;DHT22;8239;48.594;8.598;2022-10-31T09:37:05;26.00;56.90
16263;DHT22;8239;48.594;8.598;2022-10-31T09:39:32;26.10;56.40
16263;DHT22;8239;48.594;8.598;2022-10-31T09:42:14;26.20;56.60
16263;DHT22;8239;48.594;8.598;2022-10-31T09:44:51;26.30;56.50
16263;DHT22;8239;48.594;8.598;2022-10-31T09:47:28;26.50;56.20
16263;DHT22;8239;48.594;8.598;2022-10-31T09:50:14;26.50;55.80
16263;DHT22;8239;48.594;8.598;2022-10-31T09:52:44;26.30;55.80
16263;DHT22;8239;48.594;8.598;2022-10-31T09:55:17;26.10;56.00
16263;DHT22;8239;48.594;8.598;2022-10-31T09:57:46;25.90;56.20
16263;DHT22;8239;48.594;8.598;2022-10-31T10:00:17;25.70;56.50
16263;DHT22;8239;48.594;8.598;2022-10-31T10:02:47;25.40;57.30
16263;DHT22;8239;48.594;8.598;2022-10-31T10:05:20;25.20;58.70
16263;DHT22;8239;48.594;8.598;2022-10-31T10:07:54;24.80;59.90
16263;DHT22;8239;48.594;8.598;2022-10-31T10:10:31;24.50;60.50
16263;DHT22;8239;48.594;8.598;2022-10-31T10:16:21;23.90;61.50
16263;DHT22;8239;48.594;8.598;2022-10-31T10:18:59;23.70;62.00
16263;DHT22;8239;48.594;8.598;2022-10-31T10:21:38;23.70;62.80
16263;DHT22;8239;48.594;8.598;2022-10-31T10:24:25;23.80;63.40
16263;DHT22;8239;48.594;8.598;2022-10-31T10:27:03;24.10;64.10
16263;DHT22;8239;48.594;8.598;2022-10-31T10:29:37;24.30;64.80
16263;DHT22;8239;48.594;8.598;2022-10-31T10:32:11;24.30;64.00
16263;DHT22;8239;48.594;8.598;2022-10-31T10:34:44;24.40;63.80
16263;DHT22;8239;48.594;8.598;2022-10-31T10:37:22;24.20;62.20
16263;DHT22;8239;48.594;8.598;2022-10-31T10:39:54;23.90;62.50
16263;DHT22;8239;48.594;8.598;2022-10-31T10:42:23;23.60;61.90
16263;DHT22;8239;48.594;8.598;2022-10-31T10:45:14;23.00;64.20
16263;DHT22;8239;48.594;8.598;2022-10-31T10:48:10;22.90;65.40
16263;DHT22;8239;48.594;8.598;2022-10-31T10:50:46;22.90;65.80
16263;DHT22;8239;48.594;8.598;2022-10-31T10:53:27;22.90;66.00
16263;DHT22;8239;48.594;8.598;2022-10-31T10:56:11;22.90;66.00
16263;DHT22;8239;48.594;8.598;2022-10-31T10:58:39;23.00;65.80
16263;DHT22;8239;48.594;8.598;2022-10-31T11:01:11;23.20;65.80
16263;DHT22;8239;48.594;8.598;2022-10-31T11:03:39;23.20;66.10
16263;DHT22;8239;48.594;8.598;2022-10-31T11:06:16;23.30;66.20
16263;DHT22;8239;48.594;8.598;2022-10-31T11:08:48;23.20;66.40
16263;DHT22;8239;48.594;8.598;2022-10-31T11:11:23;23.20;66.90
16263;DHT22;8239;48.594;8.598;2022-10-31T11:13:58;23.20;67.40
16263;DHT22;8239;48.594;8.598;2022-10-31T11:16:31;23.10;67.40
16263;DHT22;8239;48.594;8.598;2022-10-31T11:19:07;23.10;67.80
16263;DHT22;8239;48.594;8.598;2022-10-31T11:21:34;23.10;68.00
16263;DHT22;8239;48.594;8.598;2022-10-31T11:24:04;23.10;67.60
16263;DHT22;8239;48.594;8.598;2022-10-31T11:26:39;23.00;67.10
16263;DHT22;8239;48.594;8.598;2022-10-31T11:29:13;22.90;67.70
16263;DHT22;8239;48.594;8.598;2022-10-31T11:31:41;22.70;69.20
16263;DHT22;8239;48.594;8.598;2022-10-31T11:34:16;22.80;69.90
16263;DHT22;8239;48.594;8.598;2022-10-31T11:36:45;22.90;70.20
16263;DHT22;8239;48.594;8.598;2022-10-31T11:39:22;23.30;70.50
16263;DHT22;8239;48.594;8.598;2022-10-31T11:41:50;23.60;69.80
16263;DHT22;8239;48.594;8.598;2022-10-31T11:44:20;23.90;69.60
16263;DHT22;8239;48.594;8.598;2022-10-31T11:46:49;24.20;69.20
16263;DHT22;8239;48.594;8.598;2022-10-31T11:49:25;24.40;68.60
16263;DHT22;8239;48.594;8.598;2022-10-31T11:51:57;24.60;67.20
16263;DHT22;8239;48.594;8.598;2022-10-31T11:54:29;24.80;67.10
16263;DHT22;8239;48.594;8.598;2022-10-31T11:56:57;24.70;65.60
16263;DHT22;8239;48.594;8.598;2022-10-31T11:59:27;24.70;66.20
16263;DHT22;8239;48.594;8.598;2022-10-31T12:01:57;24.50;65.60
16263;DHT22;8239;48.594;8.598;2022-10-31T12:04:35;24.30;65.30
16263;DHT22;8239;48.594;8.598;2022-10-31T12:07:04;23.90;65.80
16263;DHT22;8239;48.594;8.598;2022-10-31T12:09:35;23.40;66.80
16263;DHT22;8239;48.594;8.598;2022-10-31T12:12:43;23.10;67.70
16263;DHT22;8239;48.594;8.598;2022-10-31T12:15:29;22.60;69.40
16263;DHT22;8239;48.594;8.598;2022-10-31T12:18:12;21.90;72.40
16263;DHT22;8239;48.594;8.598;2022-10-31T12:20:54;21.30;72.00
16263;DHT22;8239;48.594;8.598;2022-10-31T12:23:29;20.80;73.10
16263;DHT22;8239;48.594;8.598;2022-10-31T12:26:08;20.40;76.30
16263;DHT22;8239;48.594;8.598;2022-10-31T12:31:42;19.70;78.50
16263;DHT22;8239;48.594;8.598;2022-10-31T12:34:33;19.40;80.00
16263;DHT22;8239;48.594;8.598;2022-10-31T12:37:09;19.40;80.10
16263;DHT22;8239;48.594;8.598;2022-10-31T12:39:47;19.30;79.10
16263;DHT22;8239;48.594;8.598;2022-10-31T12:42:32;19.20;78.00
16263;DHT22;8239;48.594;8.598;2022-10-31T12:45:18;19.30;78.80
16263;DHT22;8239;48.594;8.598;2022-10-31T12:48:22;19.50;79.40
16263;DHT22;8239;48.594;8.598;2022-10-31T12:50:58;19.90;79.20
16263;DHT22;8239;48.594;8.598;2022-10-31T12:53:38;20.40;78.40
16263;DHT22;8239;48.594;8.598;2022-10-31T12:56:17;21.10;76.90
16263;DHT22;8239;48.594;8.598;2022-10-31T12:58:55;22.30;77.30
16263;DHT22;8239;48.594;8.598;2022-10-31T13:01:27;24.30;70.80
16263;DHT22;8239;48.594;8.598;2022-10-31T13:03:59;25.90;63.70
16263;DHT22;8239;48.594;8.598;2022-10-31T13:06:33;26.80;59.60
16263;DHT22;8239;48.594;8.598;2022-10-31T13:09:06;27.20;57.80
16263;DHT22;8239;48.594;8.598;2022-10-31T13:11:37;27.50;57.70
16263;DHT22;8239;48.594;8.598;2022-10-31T13:14:10;28.20;56.90
16263;DHT22;8239;48.594;8.598;2022-10-31T13:19:15;29.50;52.20
16263;DHT22;8239;48.594;8.598;2022-10-31T13:21:51;30.00;51.20
16263;DHT22;8239;48.594;8.598;2022-10-31T13:24:23;30.20;50.40
16263;DHT22;8239;48.594;8.598;2022-10-31T13:26:56;29.90;49.50
16263;DHT22;8239;48.594;8.598;2022-10-31T13:29:28;29.50;50.10
16263;DHT22;8239;48.594;8.598;2022-10-31T13:31:57;28.70;51.30
16263;DHT22;8239;48.594;8.598;2022-10-31T13:34:27;27.70;53.60
16263;DHT22;8239;48.594;8.598;2022-10-31T13:37:03;26.90;54.00
16263;DHT22;8239;48.594;8.598;2022-10-31T13:39:44;26.70;56.50
16263;DHT22;8239;48.594;8.598;2022-10-31T13:42:15;27.90;54.80
16263;DHT22;8239;48.594;8.598;2022-10-31T13:44:46;29.80;53.20
16263;DHT22;8239;48.594;8.598;2022-10-31T13:47:25;31.80;49.80
16263;DHT22;8239;48.594;8.598;2022-10-31T13:50:04;33.20;46.40
16263;DHT22;8239;48.594;8.598;2022-10-31T13:52:31;33.80;45.10
16263;DHT22;8239;48.594;8.598;2022-10-31T13:54:58;34.50;44.00
16263;DHT22;8239;48.594;8.598;2022-10-31T13:57:31;35.30;42.40
16263;DHT22;8239;48.594;8.598;2022-10-31T14:00:03;35.90;41.30
16263;DHT22;8239;48.594;8.598;2022-10-31T14:02:31;35.70;39.80
16263;DHT22;8239;48.594;8.598;2022-10-31T14:05:01;35.20;40.50
16263;DHT22;8239;48.594;8.598;2022-10-31T14:07:30;34.50;40.40
16263;DHT22;8239;48.594;8.598;2022-10-31T14:10:02;33.30;40.50
16263;DHT22;8239;48.594;8.598;2022-10-31T14:12:33;32.20;42.20
16263;DHT22;8239;48.594;8.598;2022-10-31T14:15:16;31.00;43.90
16263;DHT22;8239;48.594;8.598;2022-10-31T14:17:47;30.80;46.00
16263;DHT22;8239;48.594;8.598;2022-10-31T14:20:34;31.30;45.60
16263;DHT22;8239;48.594;8.598;2022-10-31T14:23:29;32.10;42.90
16263;DHT22;8239;48.594;8.598;2022-10-31T14:26:07;32.00;41.60
16263;DHT22;8239;48.594;8.598;2022-10-31T14:28:42;30.90;42.90
16263;DHT22;8239;48.594;8.598;2022-10-31T14:31:29;29.90;44.70
16263;DHT22;8239;48.594;8.598;2022-10-31T14:33:59;28.70;46.60
16263;DHT22;8239;48.594;8.598;2022-10-31T14:36:36;27.60;48.40
16263;DHT22;8239;48.594;8.598;2022-10-31T14:39:10;26.60;50.30
16263;DHT22;8239;48.594;8.598;2022-10-31T14:41:52;25.90;51.80
16263;DHT22;8239;48.594;8.598;2022-10-31T14:47:20;24.50;54.40
16263;DHT22;8239;48.594;8.598;2022-10-31T14:50:07;23.70;55.60
16263;DHT22;8239;48.594;8.598;2022-10-31T14:52:38;23.10;57.40
16263;DHT22;8239;48.594;8.598;2022-10-31T14:55:07;22.40;59.50
16263;DHT22;8239;48.594;8.598;2022-10-31T14:57:38;21.90;61.40
16263;DHT22;8239;48.594;8.598;2022-10-31T15:00:16;21.50;62.30
16263;DHT22;8239;48.594;8.598;2022-10-31T15:02:51;21.10;63.50
16263;DHT22;8239;48.594;8.598;2022-10-31T15:05:20;20.70;64.50
16263;DHT22;8239;48.594;8.598;2022-10-31T15:07:51;20.40;65.60
16263;DHT22;8239;48.594;8.598;2022-10-31T15:10:22;20.10;67.20
16263;DHT22;8239;48.594;8.598;2022-10-31T15:12:49;19.90;69.20
16263;DHT22;8239;48.594;8.598;2022-10-31T15:15:20;19.60;70.90
16263;DHT22;8239;48.594;8.598;2022-10-31T15:17:52;19.40;72.50
16263;DHT22;8239;48.594;8.598;2022-10-31T15:20:21;19.20;74.30
16263;DHT22;8239;48.594;8.598;2022-10-31T15:22:49;19.00;75.30
16263;DHT22;8239;48.594;8.598;2022-10-31T15:25:18;18.90;76.30
16263;DHT22;8239;48.594;8.598;2022-10-31T15:27:47;18.80;77.20
16263;DHT22;8239;48.594;8.598;2022-10-31T15:30:18;18.60;78.30
16263;DHT22;8239;48.594;8.598;2022-10-31T15:32:46;18.50;80.10
16263;DHT22;8239;48.594;8.598;2022-10-31T15:35:22;18.20;81.70
16263;DHT22;8239;48.594;8.598;2022-10-31T15:37:51;17.90;82.60
16263;DHT22;8239;48.594;8.598;2022-10-31T15:40:20;17.60;84.50
16263;DHT22;8239;48.594;8.598;2022-10-31T15:42:51;17.30;86.50
16263;DHT22;8239;48.594;8.598;2022-10-31T15:45:21;17.00;88.90
16263;DHT22;8239;48.594;8.598;2022-10-31T15:47:53;16.70;90.70
16263;DHT22;8239;48.594;8.598;2022-10-31T15:50:28;16.50;92.10
16263;DHT22;8239;48.594;8.598;2022-10-31T15:52:55;16.20;93.60
16263;DHT22;8239;48.594;8.598;2022-10-31T15:55:24;15.90;94.80
16263;DHT22;8239;48.594;8.598;2022-10-31T15:57:56;15.70;96.00
16263;DHT22;8239;48.594;8.598;2022-10-31T16:00:26;15.50;97.10
16263;DHT22;8239;48.594;8.598;2022-10-31T16:03:04;15.30;98.30
16263;DHT22;8239;48.594;8.598;2022-10-31T16:05:38;15.00;99.70
16263;DHT22;8239;48.594;8.598;2022-10-31T16:08:22;14.90;99.90
16263;DHT22;8239;48.594;8.598;2022-10-31T16:10:50;14.70;99.90
16263;DHT22;8239;48.594;8.598;2022-10-31T16:13:17;14.50;99.90
16263;DHT22;8239;48.594;8.598;2022-10-31T16:15:50;14.40;99.90
16263;DHT22;8239;48.594;8.598;2022-10-31T16:18:18;14.30;99.90
16263;DHT22;8239;48.594;8.598;2022-10-31T16:20:50;14.20;99.90
16263;DHT22;8239;48.594;8.598;2022-10-31T16:23:21;14.20;99.90
16263;DHT22;8239;48.594;8.598;2022-10-31T16:25:50;14.10;99.90
16263;DHT22;8239;48.594;8.598;2022-10-31T16:28:19;14.00;99.90
16263;DHT22;8239;48.594;8.598;2022-10-31T16:30:48;13.90;99.90
16263;DHT22;8239;48.594;8.598;2022-10-31T16:33:24;13.70;99.90